sensor_id;sensor_type;location;lat;lon;timestamp;pressure;altitude;pressure_sealevel;temperature
68939;BMP180;59064;45.294;11.816;2023-04-24T00:01:48;100522.40;;;14.70
68939;BMP180;59064;45.294;11.816;2023-04-24T00:04:14;100520.20;;;14.70
68939;BMP180;59064;45.294;11.816;2023-04-24T00:06:42;100518.40;;;14.70
68939;BMP180;59064;45.294;11.816;2023-04-24T00:09:16;100514.00;;;14.70
68939;BMP180;59064;45.294;11.816;2023-04-24T00:11:41;100509.40;;;14.70
68939;BMP180;59064;45.294;11.816;2023-04-24T00:14:07;100505.60;;;14.70
68939;BMP180;59064;45.294;11.816;2023-04-24T00:16:33;100504.80;;;14.70
68939;BMP180;59064;45.294;11.816;2023-04-24T00:18:59;100500.40;;;14.70
68939;BMP180;59064;45.294;11.816;2023-04-24T00:21:26;100495.20;;;14.70
68939;BMP180;59064;45.294;11.816;2023-04-24T00:23:52;100493.00;;;14.70
68939;BMP180;59064;45.294;11.816;2023-04-24T00:26:18;100494.80;;;14.60
68939;BMP180;59064;45.294;11.816;2023-04-24T00:28:43;100494.80;;;14.60
68939;BMP180;59064;45.294;11.816;2023-04-24T00:31:09;100494.40;;;14.60
68939;BMP180;59064;45.294;11.816;2023-04-24T00:33:35;100488.00;;;14.60
68939;BMP180;59064;45.294;11.816;2023-04-24T00:36:01;100481.60;;;14.60
68939;BMP180;59064;45.294;11.816;2023-04-24T00:38:27;100474.00;;;14.60
68939;BMP180;59064;45.294;11.816;2023-04-24T00:40:53;100471.20;;;14.56
68939;BMP180;59064;45.294;11.816;2023-04-24T00:43:19;100470.00;;;14.50
68939;BMP180;59064;45.294;11.816;2023-04-24T00:45:45;100473.20;;;14.50
68939;BMP180;59064;45.294;11.816;2023-04-24T00:48:11;100473.80;;;14.42
68939;BMP180;59064;45.294;11.816;2023-04-24T00:50:38;100472.80;;;14.40
68939;BMP180;59064;45.294;11.816;2023-04-24T00:53:04;100466.60;;;14.40
68939;BMP180;59064;45.294;11.816;2023-04-24T00:55:30;100461.00;;;14.40
68939;BMP180;59064;45.294;11.816;2023-04-24T00:57:57;100461.80;;;14.30
68939;BMP180;59064;45.294;11.816;2023-04-24T01:00:22;100460.20;;;14.30
68939;BMP180;59064;45.294;11.816;2023-04-24T01:02:48;100462.00;;;14.26
68939;BMP180;59064;45.294;11.816;2023-04-24T01:05:15;100457.40;;;14.20
68939;BMP180;59064;45.294;11.816;2023-04-24T01:07:45;100453.20;;;14.22
68939;BMP180;59064;45.294;11.816;2023-04-24T01:10:14;100453.80;;;14.20
68939;BMP180;59064;45.294;11.816;2023-04-24T01:12:40;100451.80;;;14.20
68939;BMP180;59064;45.294;11.816;2023-04-24T01:15:09;100455.80;;;14.20
68939;BMP180;59064;45.294;11.816;2023-04-24T01:17:35;100456.60;;;14.20
68939;BMP180;59064;45.294;11.816;2023-04-24T01:20:01;100452.80;;;14.20
68939;BMP180;59064;45.294;11.816;2023-04-24T01:22:31;100452.00;;;14.20
68939;BMP180;59064;45.294;11.816;2023-04-24T01:24:58;100449.80;;;14.20
68939;BMP180;59064;45.294;11.816;2023-04-24T01:27:23;100448.40;;;14.20
68939;BMP180;59064;45.294;11.816;2023-04-24T01:29:51;100443.60;;;14.20
68939;BMP180;59064;45.294;11.816;2023-04-24T01:32:17;100442.80;;;14.20
68939;BMP180;59064;45.294;11.816;2023-04-24T01:34:44;100435.20;;;14.20
68939;BMP180;59064;45.294;11.816;2023-04-24T01:37:10;100439.20;;;14.20
68939;BMP180;59064;45.294;11.816;2023-04-24T01:39:36;100432.80;;;14.20
68939;BMP180;59064;45.294;11.816;2023-04-24T01:42:01;100424.80;;;14.20
68939;BMP180;59064;45.294;11.816;2023-04-24T01:44:30;100427.60;;;14.20
68939;BMP180;59064;45.294;11.816;2023-04-24T01:46:56;100429.60;;;14.20
68939;BMP180;59064;45.294;11.816;2023-04-24T01:49:25;100425.20;;;14.20
68939;BMP180;59064;45.294;11.816;2023-04-24T01:51:53;100419.20;;;14.20
68939;BMP180;59064;45.294;11.816;2023-04-24T01:54:24;100411.80;;;14.20
68939;BMP180;59064;45.294;11.816;2023-04-24T01:56:50;100405.80;;;14.14
68939;BMP180;59064;45.294;11.816;2023-04-24T01:59:17;100399.80;;;14.10
68939;BMP180;59064;45.294;11.816;2023-04-24T02:01:43;100397.60;;;14.10
68939;BMP180;59064;45.294;11.816;2023-04-24T02:04:09;100403.60;;;14.10
68939;BMP180;59064;45.294;11.816;2023-04-24T02:06:38;100407.20;;;14.10
68939;BMP180;59064;45.294;11.816;2023-04-24T02:09:04;100406.00;;;14.10
68939;BMP180;59064;45.294;11.816;2023-04-24T02:11:30;100402.20;;;14.10
68939;BMP180;59064;45.294;11.816;2023-04-24T02:13:56;100396.80;;;14.04
68939;BMP180;59064;45.294;11.816;2023-04-24T02:16:22;100399.00;;;14.00
68939;BMP180;59064;45.294;11.816;2023-04-24T02:18:48;100393.40;;;14.00
68939;BMP180;59064;45.294;11.816;2023-04-24T02:21:13;100389.40;;;14.00
68939;BMP180;59064;45.294;11.816;2023-04-24T02:23:40;100392.40;;;14.00
68939;BMP180;59064;45.294;11.816;2023-04-24T02:26:06;100387.20;;;14.00
68939;BMP180;59064;45.294;11.816;2023-04-24T02:28:32;100384.20;;;13.96
68939;BMP180;59064;45.294;11.816;2023-04-24T02:30:57;100381.60;;;13.90
68939;BMP180;59064;45.294;11.816;2023-04-24T02:33:23;100376.60;;;13.90
68939;BMP180;59064;45.294;11.816;2023-04-24T02:35:49;100378.80;;;13.90
68939;BMP180;59064;45.294;11.816;2023-04-24T02:38:15;100375.40;;;13.90
68939;BMP180;59064;45.294;11.816;2023-04-24T02:40:41;100375.00;;;13.90
68939;BMP180;59064;45.294;11.816;2023-04-24T02:43:08;100370.60;;;13.90
68939;BMP180;59064;45.294;11.816;2023-04-24T02:45:34;100363.80;;;13.90
68939;BMP180;59064;45.294;11.816;2023-04-24T02:48:00;100362.40;;;13.90
68939;BMP180;59064;45.294;11.816;2023-04-24T02:50:25;100355.40;;;13.90
68939;BMP180;59064;45.294;11.816;2023-04-24T02:52:51;100351.20;;;13.90
68939;BMP180;59064;45.294;11.816;2023-04-24T02:55:17;100350.00;;;13.90
68939;BMP180;59064;45.294;11.816;2023-04-24T02:57:42;100352.60;;;13.88
68939;BMP180;59064;45.294;11.816;2023-04-24T03:00:10;100351.80;;;13.82
68939;BMP180;59064;45.294;11.816;2023-04-24T03:02:38;100349.80;;;13.82
68939;BMP180;59064;45.294;11.816;2023-04-24T03:05:04;100351.40;;;13.80
68939;BMP180;59064;45.294;11.816;2023-04-24T03:07:34;100347.80;;;13.80
68939;BMP180;59064;45.294;11.816;2023-04-24T03:10:00;100340.40;;;13.80
68939;BMP180;59064;45.294;11.816;2023-04-24T03:12:26;100348.00;;;13.80
68939;BMP180;59064;45.294;11.816;2023-04-24T03:14:51;100341.80;;;13.80
68939;BMP180;59064;45.294;11.816;2023-04-24T03:17:17;100338.60;;;13.80
68939;BMP180;59064;45.294;11.816;2023-04-24T03:19:44;100337.20;;;13.80
68939;BMP180;59064;45.294;11.816;2023-04-24T03:22:11;100331.80;;;13.80
68939;BMP180;59064;45.294;11.816;2023-04-24T03:24:37;100337.20;;;13.80
68939;BMP180;59064;45.294;11.816;2023-04-24T03:27:03;100340.40;;;13.70
68939;BMP180;59064;45.294;11.816;2023-04-24T03:29:28;100338.00;;;13.70
68939;BMP180;59064;45.294;11.816;2023-04-24T03:31:54;100341.00;;;13.70
68939;BMP180;59064;45.294;11.816;2023-04-24T03:34:21;100341.60;;;13.70
68939;BMP180;59064;45.294;11.816;2023-04-24T03:36:47;100342.20;;;13.68
68939;BMP180;59064;45.294;11.816;2023-04-24T03:39:15;100344.20;;;13.70
68939;BMP180;59064;45.294;11.816;2023-04-24T03:41:43;100349.60;;;13.70
68939;BMP180;59064;45.294;11.816;2023-04-24T03:44:08;100350.80;;;13.70
68939;BMP180;59064;45.294;11.816;2023-04-24T03:46:34;100349.00;;;13.64
68939;BMP180;59064;45.294;11.816;2023-04-24T03:49:00;100360.80;;;13.62
68939;BMP180;59064;45.294;11.816;2023-04-24T03:51:27;100360.80;;;13.60
68939;BMP180;59064;45.294;11.816;2023-04-24T03:53:53;100364.60;;;13.60
68939;BMP180;59064;45.294;11.816;2023-04-24T03:56:19;100360.00;;;13.60
68939;BMP180;59064;45.294;11.816;2023-04-24T03:58:45;100362.20;;;13.60
68939;BMP180;59064;45.294;11.816;2023-04-24T04:01:11;100354.60;;;13.60
68939;BMP180;59064;45.294;11.816;2023-04-24T04:03:38;100353.40;;;13.60
68939;BMP180;59064;45.294;11.816;2023-04-24T04:06:03;100361.80;;;13.60
68939;BMP180;59064;45.294;11.816;2023-04-24T04:08:29;100355.20;;;13.50
68939;BMP180;59064;45.294;11.816;2023-04-24T04:10:55;100335.80;;;13.50
68939;BMP180;59064;45.294;11.816;2023-04-24T04:13:22;100327.20;;;13.50
68939;BMP180;59064;45.294;11.816;2023-04-24T04:15:47;100319.40;;;13.48
68939;BMP180;59064;45.294;11.816;2023-04-24T04:18:13;100320.60;;;13.40
68939;BMP180;59064;45.294;11.816;2023-04-24T04:20:38;100315.40;;;13.40
68939;BMP180;59064;45.294;11.816;2023-04-24T04:23:04;100312.20;;;13.40
68939;BMP180;59064;45.294;11.816;2023-04-24T04:25:29;100329.00;;;13.40
68939;BMP180;59064;45.294;11.816;2023-04-24T04:27:55;100328.80;;;13.40
68939;BMP180;59064;45.294;11.816;2023-04-24T04:30:21;100339.20;;;13.40
68939;BMP180;59064;45.294;11.816;2023-04-24T04:32:47;100356.40;;;13.30
68939;BMP180;59064;45.294;11.816;2023-04-24T04:35:13;100346.20;;;13.30
68939;BMP180;59064;45.294;11.816;2023-04-24T04:37:42;100347.60;;;13.20
68939;BMP180;59064;45.294;11.816;2023-04-24T04:40:08;100357.60;;;13.20
68939;BMP180;59064;45.294;11.816;2023-04-24T04:42:36;100339.00;;;13.20
68939;BMP180;59064;45.294;11.816;2023-04-24T04:45:07;100329.80;;;13.20
68939;BMP180;59064;45.294;11.816;2023-04-24T04:47:34;100337.80;;;13.20
68939;BMP180;59064;45.294;11.816;2023-04-24T04:50:01;100344.40;;;13.20
68939;BMP180;59064;45.294;11.816;2023-04-24T04:52:31;100340.00;;;13.30
68939;BMP180;59064;45.294;11.816;2023-04-24T04:54:57;100333.60;;;13.30
68939;BMP180;59064;45.294;11.816;2023-04-24T04:57:23;100348.60;;;13.30
68939;BMP180;59064;45.294;11.816;2023-04-24T04:59:50;100349.00;;;13.30
68939;BMP180;59064;45.294;11.816;2023-04-24T05:02:15;100341.80;;;13.30
68939;BMP180;59064;45.294;11.816;2023-04-24T05:04:41;100347.40;;;13.30
68939;BMP180;59064;45.294;11.816;2023-04-24T05:07:06;100356.20;;;13.34
68939;BMP180;59064;45.294;11.816;2023-04-24T05:09:38;100350.60;;;13.40
68939;BMP180;59064;45.294;11.816;2023-04-24T05:12:10;100344.60;;;13.40
68939;BMP180;59064;45.294;11.816;2023-04-24T05:14:35;100366.60;;;13.40
68939;BMP180;59064;45.294;11.816;2023-04-24T05:17:01;100377.40;;;13.40
68939;BMP180;59064;45.294;11.816;2023-04-24T05:19:33;100379.20;;;13.40
68939;BMP180;59064;45.294;11.816;2023-04-24T05:22:02;100361.40;;;13.40
68939;BMP180;59064;45.294;11.816;2023-04-24T05:24:29;100371.00;;;13.34
68939;BMP180;59064;45.294;11.816;2023-04-24T05:26:56;100353.40;;;13.30
68939;BMP180;59064;45.294;11.816;2023-04-24T05:29:24;100338.60;;;13.38
68939;BMP180;59064;45.294;11.816;2023-04-24T05:31:52;100335.40;;;13.40
68939;BMP180;59064;45.294;11.816;2023-04-24T05:34:19;100341.60;;;13.40
68939;BMP180;59064;45.294;11.816;2023-04-24T05:36:45;100348.00;;;13.40
68939;BMP180;59064;45.294;11.816;2023-04-24T05:39:11;100346.20;;;13.48
68939;BMP180;59064;45.294;11.816;2023-04-24T05:41:40;100347.40;;;13.50
68939;BMP180;59064;45.294;11.816;2023-04-24T05:44:06;100346.80;;;13.50
68939;BMP180;59064;45.294;11.816;2023-04-24T05:46:31;100349.40;;;13.50
68939;BMP180;59064;45.294;11.816;2023-04-24T05:48:58;100347.20;;;13.50
68939;BMP180;59064;45.294;11.816;2023-04-24T05:51:24;100348.00;;;13.52
68939;BMP180;59064;45.294;11.816;2023-04-24T05:53:49;100349.60;;;13.60
68939;BMP180;59064;45.294;11.816;2023-04-24T05:56:16;100352.80;;;13.60
68939;BMP180;59064;45.294;11.816;2023-04-24T05:58:42;100346.40;;;13.70
68939;BMP180;59064;45.294;11.816;2023-04-24T06:01:09;100349.00;;;13.70
68939;BMP180;59064;45.294;11.816;2023-04-24T06:03:38;100337.80;;;13.80
68939;BMP180;59064;45.294;11.816;2023-04-24T06:06:07;100336.60;;;13.90
68939;BMP180;59064;45.294;11.816;2023-04-24T06:08:36;100332.60;;;13.90
68939;BMP180;59064;45.294;11.816;2023-04-24T06:11:01;100334.60;;;13.90
68939;BMP180;59064;45.294;11.816;2023-04-24T06:13:27;100324.00;;;13.90
68939;BMP180;59064;45.294;11.816;2023-04-24T06:15:54;100324.60;;;14.00
68939;BMP180;59064;45.294;11.816;2023-04-24T06:18:21;100326.40;;;14.00
68939;BMP180;59064;45.294;11.816;2023-04-24T06:20:47;100327.00;;;14.00
68939;BMP180;59064;45.294;11.816;2023-04-24T06:23:13;100325.00;;;14.00
68939;BMP180;59064;45.294;11.816;2023-04-24T06:25:39;100319.20;;;14.00
68939;BMP180;59064;45.294;11.816;2023-04-24T06:28:05;100320.00;;;13.90
68939;BMP180;59064;45.294;11.816;2023-04-24T06:30:31;100314.80;;;13.90
68939;BMP180;59064;45.294;11.816;2023-04-24T06:32:56;100318.60;;;13.82
68939;BMP180;59064;45.294;11.816;2023-04-24T06:35:23;100319.60;;;13.80
68939;BMP180;59064;45.294;11.816;2023-04-24T06:37:48;100314.40;;;13.90
68939;BMP180;59064;45.294;11.816;2023-04-24T06:40:14;100308.40;;;13.90
68939;BMP180;59064;45.294;11.816;2023-04-24T06:42:42;100309.40;;;14.00
68939;BMP180;59064;45.294;11.816;2023-04-24T06:45:08;100303.00;;;14.10
68939;BMP180;59064;45.294;11.816;2023-04-24T06:47:34;100296.80;;;14.12
68939;BMP180;59064;45.294;11.816;2023-04-24T06:49:59;100293.80;;;14.30
68939;BMP180;59064;45.294;11.816;2023-04-24T06:52:28;100290.20;;;14.38
68939;BMP180;59064;45.294;11.816;2023-04-24T06:55:00;100293.60;;;14.40
68939;BMP180;59064;45.294;11.816;2023-04-24T06:57:30;100299.60;;;14.50
68939;BMP180;59064;45.294;11.816;2023-04-24T06:59:57;100301.60;;;14.50
68939;BMP180;59064;45.294;11.816;2023-04-24T07:02:23;100314.00;;;14.56
68939;BMP180;59064;45.294;11.816;2023-04-24T07:04:49;100316.60;;;14.60
68939;BMP180;59064;45.294;11.816;2023-04-24T07:07:14;100337.00;;;14.60
68939;BMP180;59064;45.294;11.816;2023-04-24T07:09:40;100348.80;;;14.60
68939;BMP180;59064;45.294;11.816;2023-04-24T07:12:10;100355.00;;;14.60
68939;BMP180;59064;45.294;11.816;2023-04-24T07:14:39;100360.40;;;14.50
68939;BMP180;59064;45.294;11.816;2023-04-24T07:17:06;100363.80;;;14.34
68939;BMP180;59064;45.294;11.816;2023-04-24T07:19:33;100363.00;;;14.30
68939;BMP180;59064;45.294;11.816;2023-04-24T07:21:59;100369.60;;;14.20
68939;BMP180;59064;45.294;11.816;2023-04-24T07:24:26;100377.00;;;14.10
68939;BMP180;59064;45.294;11.816;2023-04-24T07:26:54;100379.60;;;14.10
68939;BMP180;59064;45.294;11.816;2023-04-24T07:29:20;100384.20;;;14.12
68939;BMP180;59064;45.294;11.816;2023-04-24T07:31:46;100377.60;;;14.30
68939;BMP180;59064;45.294;11.816;2023-04-24T07:34:12;100377.20;;;14.40
68939;BMP180;59064;45.294;11.816;2023-04-24T07:36:37;100380.00;;;14.58
68939;BMP180;59064;45.294;11.816;2023-04-24T07:39:04;100379.60;;;14.60
68939;BMP180;59064;45.294;11.816;2023-04-24T07:41:31;100369.40;;;14.60
68939;BMP180;59064;45.294;11.816;2023-04-24T07:43:57;100361.60;;;14.60
68939;BMP180;59064;45.294;11.816;2023-04-24T07:46:26;100367.20;;;14.64
68939;BMP180;59064;45.294;11.816;2023-04-24T07:48:55;100362.80;;;14.60
68939;BMP180;59064;45.294;11.816;2023-04-24T07:51:22;100359.40;;;14.60
68939;BMP180;59064;45.294;11.816;2023-04-24T07:53:47;100357.40;;;14.60
68939;BMP180;59064;45.294;11.816;2023-04-24T07:56:13;100355.40;;;14.60
68939;BMP180;59064;45.294;11.816;2023-04-24T07:58:39;100354.20;;;14.60
68939;BMP180;59064;45.294;11.816;2023-04-24T08:01:06;100341.40;;;14.70
68939;BMP180;59064;45.294;11.816;2023-04-24T08:03:32;100342.00;;;14.80
68939;BMP180;59064;45.294;11.816;2023-04-24T08:05:58;100341.00;;;14.96
68939;BMP180;59064;45.294;11.816;2023-04-24T08:08:24;100338.40;;;15.10
68939;BMP180;59064;45.294;11.816;2023-04-24T08:10:50;100334.40;;;15.30
68939;BMP180;59064;45.294;11.816;2023-04-24T08:13:16;100334.00;;;15.40
68939;BMP180;59064;45.294;11.816;2023-04-24T08:15:41;100332.40;;;15.50
68939;BMP180;59064;45.294;11.816;2023-04-24T08:18:07;100329.00;;;15.60
68939;BMP180;59064;45.294;11.816;2023-04-24T08:20:33;100328.20;;;15.70
68939;BMP180;59064;45.294;11.816;2023-04-24T08:22:58;100328.60;;;15.82
68939;BMP180;59064;45.294;11.816;2023-04-24T08:25:24;100325.00;;;15.90
68939;BMP180;59064;45.294;11.816;2023-04-24T08:27:52;100321.20;;;16.00
68939;BMP180;59064;45.294;11.816;2023-04-24T08:30:18;100322.00;;;16.10
68939;BMP180;59064;45.294;11.816;2023-04-24T08:32:43;100320.00;;;16.30
68939;BMP180;59064;45.294;11.816;2023-04-24T08:35:09;100320.40;;;16.50
68939;BMP180;59064;45.294;11.816;2023-04-24T08:37:35;100318.80;;;16.60
68939;BMP180;59064;45.294;11.816;2023-04-24T08:40:06;100318.60;;;16.80
68939;BMP180;59064;45.294;11.816;2023-04-24T08:42:37;100319.20;;;17.00
68939;BMP180;59064;45.294;11.816;2023-04-24T08:45:07;100323.20;;;17.10
68939;BMP180;59064;45.294;11.816;2023-04-24T08:47:33;100329.40;;;17.30
68939;BMP180;59064;45.294;11.816;2023-04-24T08:50:02;100329.20;;;17.50
68939;BMP180;59064;45.294;11.816;2023-04-24T08:52:29;100333.40;;;17.66
68939;BMP180;59064;45.294;11.816;2023-04-24T08:54:56;100341.20;;;17.90
68939;BMP180;59064;45.294;11.816;2023-04-24T08:57:22;100349.60;;;17.90
68939;BMP180;59064;45.294;11.816;2023-04-24T08:59:58;100360.80;;;17.80
68939;BMP180;59064;45.294;11.816;2023-04-24T09:02:24;100358.20;;;17.60
68939;BMP180;59064;45.294;11.816;2023-04-24T09:04:53;100356.40;;;17.40
68939;BMP180;59064;45.294;11.816;2023-04-24T09:07:22;100366.60;;;17.40
68939;BMP180;59064;45.294;11.816;2023-04-24T09:09:51;100369.60;;;17.50
68939;BMP180;59064;45.294;11.816;2023-04-24T09:12:18;100372.80;;;17.60
68939;BMP180;59064;45.294;11.816;2023-04-24T09:14:44;100382.20;;;17.74
68939;BMP180;59064;45.294;11.816;2023-04-24T09:17:11;100392.20;;;17.94
68939;BMP180;59064;45.294;11.816;2023-04-24T09:19:37;100386.80;;;18.00
68939;BMP180;59064;45.294;11.816;2023-04-24T09:22:07;100393.60;;;18.00
68939;BMP180;59064;45.294;11.816;2023-04-24T09:24:33;100395.60;;;18.00
68939;BMP180;59064;45.294;11.816;2023-04-24T09:27:00;100402.60;;;18.00
68939;BMP180;59064;45.294;11.816;2023-04-24T09:29:29;100401.40;;;18.10
68939;BMP180;59064;45.294;11.816;2023-04-24T09:31:55;100400.80;;;18.20
68939;BMP180;59064;45.294;11.816;2023-04-24T09:34:22;100409.20;;;18.10
68939;BMP180;59064;45.294;11.816;2023-04-24T09:36:49;100414.60;;;18.00
68939;BMP180;59064;45.294;11.816;2023-04-24T09:39:16;100422.20;;;17.80
68939;BMP180;59064;45.294;11.816;2023-04-24T09:41:52;100424.40;;;17.70
68939;BMP180;59064;45.294;11.816;2023-04-24T09:44:21;100422.80;;;17.80
68939;BMP180;59064;45.294;11.816;2023-04-24T09:47:08;100425.80;;;17.94
68939;BMP180;59064;45.294;11.816;2023-04-24T09:49:34;100428.00;;;18.10
68939;BMP180;59064;45.294;11.816;2023-04-24T09:52:07;100434.40;;;18.10
68939;BMP180;59064;45.294;11.816;2023-04-24T09:54:36;100426.00;;;18.20
68939;BMP180;59064;45.294;11.816;2023-04-24T09:57:07;100425.40;;;18.30
68939;BMP180;59064;45.294;11.816;2023-04-24T09:59:33;100435.80;;;18.46
68939;BMP180;59064;45.294;11.816;2023-04-24T10:01:59;100446.00;;;18.60
68939;BMP180;59064;45.294;11.816;2023-04-24T10:04:26;100442.80;;;18.80
68939;BMP180;59064;45.294;11.816;2023-04-24T10:06:54;100447.60;;;19.10
68939;BMP180;59064;45.294;11.816;2023-04-24T10:09:25;100449.80;;;19.44
68939;BMP180;59064;45.294;11.816;2023-04-24T10:11:53;100458.20;;;19.90
68939;BMP180;59064;45.294;11.816;2023-04-24T10:14:23;100458.40;;;20.00
68939;BMP180;59064;45.294;11.816;2023-04-24T10:16:53;100459.00;;;20.08
68939;BMP180;59064;45.294;11.816;2023-04-24T10:19:19;100464.00;;;20.50
68939;BMP180;59064;45.294;11.816;2023-04-24T10:21:48;100463.60;;;20.72
68939;BMP180;59064;45.294;11.816;2023-04-24T10:24:16;100469.00;;;20.68
68939;BMP180;59064;45.294;11.816;2023-04-24T10:26:46;100465.00;;;20.50
68939;BMP180;59064;45.294;11.816;2023-04-24T10:29:16;100460.00;;;20.60
68939;BMP180;59064;45.294;11.816;2023-04-24T10:31:42;100457.60;;;20.60
68939;BMP180;59064;45.294;11.816;2023-04-24T10:34:12;100457.40;;;20.60
68939;BMP180;59064;45.294;11.816;2023-04-24T10:37:07;100464.80;;;20.60
68939;BMP180;59064;45.294;11.816;2023-04-24T10:39:33;100467.60;;;20.70
68939;BMP180;59064;45.294;11.816;2023-04-24T10:41:59;100469.40;;;20.70
68939;BMP180;59064;45.294;11.816;2023-04-24T10:44:24;100469.00;;;20.60
68939;BMP180;59064;45.294;11.816;2023-04-24T10:46:55;100474.80;;;20.60
68939;BMP180;59064;45.294;11.816;2023-04-24T10:49:29;100468.80;;;20.48
68939;BMP180;59064;45.294;11.816;2023-04-24T10:52:04;100472.00;;;20.60
68939;BMP180;59064;45.294;11.816;2023-04-24T10:54:46;100475.00;;;20.80
68939;BMP180;59064;45.294;11.816;2023-04-24T11:00:09;100467.60;;;20.70
68939;BMP180;59064;45.294;11.816;2023-04-24T11:02:38;100464.80;;;20.50
68939;BMP180;59064;45.294;11.816;2023-04-24T11:05:09;100446.40;;;20.48
68939;BMP180;59064;45.294;11.816;2023-04-24T11:08:10;100438.80;;;20.20
68939;BMP180;59064;45.294;11.816;2023-04-24T11:10:40;100431.20;;;19.80
68939;BMP180;59064;45.294;11.816;2023-04-24T11:13:06;100429.20;;;19.80
68939;BMP180;59064;45.294;11.816;2023-04-24T11:15:32;100416.00;;;19.88
68939;BMP180;59064;45.294;11.816;2023-04-24T11:18:01;100422.00;;;20.00
68939;BMP180;59064;45.294;11.816;2023-04-24T11:20:29;100432.80;;;20.00
68939;BMP180;59064;45.294;11.816;2023-04-24T11:22:58;100449.60;;;19.98
68939;BMP180;59064;45.294;11.816;2023-04-24T11:25:30;100451.00;;;20.00
68939;BMP180;59064;45.294;11.816;2023-04-24T11:28:06;100451.60;;;20.14
68939;BMP180;59064;45.294;11.816;2023-04-24T11:30:32;100456.60;;;20.30
68939;BMP180;59064;45.294;11.816;2023-04-24T11:33:04;100450.20;;;20.40
68939;BMP180;59064;45.294;11.816;2023-04-24T11:35:35;100456.80;;;20.40
68939;BMP180;59064;45.294;11.816;2023-04-24T11:38:02;100461.00;;;20.40
68939;BMP180;59064;45.294;11.816;2023-04-24T11:40:28;100457.20;;;20.30
68939;BMP180;59064;45.294;11.816;2023-04-24T11:42:54;100462.60;;;20.02
68939;BMP180;59064;45.294;11.816;2023-04-24T11:45:29;100468.20;;;19.80
68939;BMP180;59064;45.294;11.816;2023-04-24T11:47:57;100474.80;;;19.70
68939;BMP180;59064;45.294;11.816;2023-04-24T11:50:25;100478.00;;;19.70
68939;BMP180;59064;45.294;11.816;2023-04-24T11:52:53;100480.00;;;19.60
68939;BMP180;59064;45.294;11.816;2023-04-24T11:57:53;100488.00;;;19.60
68939;BMP180;59064;45.294;11.816;2023-04-24T12:00:26;100484.60;;;19.70
68939;BMP180;59064;45.294;11.816;2023-04-24T12:03:06;100488.40;;;19.54
68939;BMP180;59064;45.294;11.816;2023-04-24T12:05:33;100493.00;;;19.46
68939;BMP180;59064;45.294;11.816;2023-04-24T12:08:00;100488.40;;;19.46
68939;BMP180;59064;45.294;11.816;2023-04-24T12:10:27;100489.80;;;19.44
68939;BMP180;59064;45.294;11.816;2023-04-24T12:12:54;100491.80;;;19.52
68939;BMP180;59064;45.294;11.816;2023-04-24T12:15:21;100497.00;;;19.60
68939;BMP180;59064;45.294;11.816;2023-04-24T12:17:47;100499.40;;;19.60
68939;BMP180;59064;45.294;11.816;2023-04-24T12:20:14;100505.00;;;19.80
68939;BMP180;59064;45.294;11.816;2023-04-24T12:22:54;100495.60;;;20.00
68939;BMP180;59064;45.294;11.816;2023-04-24T12:25:22;100501.00;;;20.14
68939;BMP180;59064;45.294;11.816;2023-04-24T12:28:11;100495.80;;;20.42
68939;BMP180;59064;45.294;11.816;2023-04-24T12:30:46;100499.60;;;20.60
68939;BMP180;59064;45.294;11.816;2023-04-24T12:33:21;100502.20;;;20.80
68939;BMP180;59064;45.294;11.816;2023-04-24T12:35:48;100500.80;;;20.92
68939;BMP180;59064;45.294;11.816;2023-04-24T12:38:16;100504.00;;;20.80
68939;BMP180;59064;45.294;11.816;2023-04-24T12:40:43;100508.00;;;20.90
68939;BMP180;59064;45.294;11.816;2023-04-24T12:43:19;100501.80;;;21.30
68939;BMP180;59064;45.294;11.816;2023-04-24T12:45:47;100500.80;;;21.30
68939;BMP180;59064;45.294;11.816;2023-04-24T12:48:13;100502.80;;;21.50
68939;BMP180;59064;45.294;11.816;2023-04-24T12:50:42;100490.80;;;21.90
68939;BMP180;59064;45.294;11.816;2023-04-24T12:53:08;100497.20;;;21.82
68939;BMP180;59064;45.294;11.816;2023-04-24T12:55:35;100486.60;;;21.90
68939;BMP180;59064;45.294;11.816;2023-04-24T12:58:01;100484.60;;;21.90
68939;BMP180;59064;45.294;11.816;2023-04-24T13:00:28;100483.60;;;21.84
68939;BMP180;59064;45.294;11.816;2023-04-24T13:02:53;100485.20;;;22.34
68939;BMP180;59064;45.294;11.816;2023-04-24T13:05:19;100482.80;;;22.94
68939;BMP180;59064;45.294;11.816;2023-04-24T13:07:46;100478.00;;;23.58
68939;BMP180;59064;45.294;11.816;2023-04-24T13:10:12;100471.20;;;23.54
68939;BMP180;59064;45.294;11.816;2023-04-24T13:12:39;100480.00;;;23.48
68939;BMP180;59064;45.294;11.816;2023-04-24T13:15:06;100472.20;;;23.42
68939;BMP180;59064;45.294;11.816;2023-04-24T13:17:32;100464.40;;;24.26
68939;BMP180;59064;45.294;11.816;2023-04-24T13:19:58;100458.00;;;24.58
68939;BMP180;59064;45.294;11.816;2023-04-24T13:22:24;100456.40;;;24.66
68939;BMP180;59064;45.294;11.816;2023-04-24T13:24:50;100464.20;;;25.04
68939;BMP180;59064;45.294;11.816;2023-04-24T13:27:16;100464.80;;;25.30
68939;BMP180;59064;45.294;11.816;2023-04-24T13:29:42;100468.40;;;25.64
68939;BMP180;59064;45.294;11.816;2023-04-24T13:32:08;100466.40;;;25.50
68939;BMP180;59064;45.294;11.816;2023-04-24T13:34:35;100459.60;;;25.62
68939;BMP180;59064;45.294;11.816;2023-04-24T13:37:02;100458.20;;;25.64
68939;BMP180;59064;45.294;11.816;2023-04-24T13:39:33;100457.80;;;25.04
68939;BMP180;59064;45.294;11.816;2023-04-24T13:42:00;100456.60;;;24.42
68939;BMP180;59064;45.294;11.816;2023-04-24T13:44:26;100439.00;;;23.46
68939;BMP180;59064;45.294;11.816;2023-04-24T13:46:57;100437.00;;;22.16
68939;BMP180;59064;45.294;11.816;2023-04-24T13:49:24;100439.00;;;21.60
68939;BMP180;59064;45.294;11.816;2023-04-24T13:51:56;100443.00;;;21.70